North Battleford, Canada
Current Conditions -  °F | °C
As of 9:35 PM on Tuesday 21 Oct 2014 (Local Time) from CYQW Reporting Station
Light Rain Light Rain  
Wind Chill: 52°   Ceiling: 7500
Heat Index: 52°   Visibility: 9mi
Dew Point: 45°   Wind: 10mph
Humidity: 76%   Direction: 330°NNW
Pressure: 29.66"   Gusts: NA
Location:  52.78°N, 108.3°W
Report Text: CYQW 220335Z AUTO 33009KT 9SM -RA OVC075 11/07 A2966 RMK SLP053 DENSITY ALT 2100FT
Loading
Personal Weather Stations






























Interactive Weather Map
Tropical Storm Tracking
New forecast layout! Learn more

10-Day Weather Forecast

Advertisements
Track Severe Weather on mobile